createdAt,value
2018-04-25T00:00:59.822Z,14.90
2018-04-25T00:03:27.245Z,14.80
2018-04-25T00:05:54.671Z,14.80
2018-04-25T00:08:22.103Z,14.80
2018-04-25T00:10:49.556Z,14.80
2018-04-25T00:13:16.984Z,14.70
2018-04-25T00:15:44.440Z,14.70
2018-04-25T00:18:11.871Z,14.70
2018-04-25T00:20:39.315Z,14.60
2018-04-25T00:23:08.483Z,14.70
2018-04-25T00:25:35.932Z,14.70
2018-04-25T00:28:03.360Z,14.60
2018-04-25T00:39:10.134Z,14.40
2018-04-25T00:41:37.574Z,14.40
2018-04-25T00:44:05.790Z,14.50
2018-04-25T00:46:33.252Z,14.50
2018-04-25T00:49:00.714Z,14.30
2018-04-25T00:51:28.184Z,14.30
2018-04-25T00:53:55.619Z,14.30
2018-04-25T00:56:23.064Z,14.30
2018-04-25T00:58:50.515Z,14.30
2018-04-25T01:01:17.952Z,14.20
2018-04-25T01:03:46.157Z,14.30
2018-04-25T01:06:13.613Z,14.30
2018-04-25T01:08:41.079Z,14.20
2018-04-25T01:11:08.525Z,14.20
2018-04-25T01:13:41.430Z,14.30
2018-04-25T01:16:08.880Z,14.30
2018-04-25T01:18:36.331Z,14.20
2018-04-25T01:21:04.537Z,14.20
2018-04-25T01:23:31.972Z,14.20
2018-04-25T01:26:06.444Z,14.20
2018-04-25T01:28:44.712Z,14.20
2018-04-25T01:31:22.703Z,14.20
2018-04-25T01:33:58.502Z,14.20
2018-04-25T01:36:41.619Z,14.20
2018-04-25T01:39:09.660Z,14.20
2018-04-25T01:41:37.107Z,14.30
2018-04-25T01:47:05.404Z,14.10
2018-04-25T01:49:39.230Z,14.10
2018-04-25T01:52:19.124Z,14.20
2018-04-25T01:54:58.449Z,14.20
2018-04-25T01:57:37.712Z,14.10
2018-04-25T02:00:17.708Z,13.90
2018-04-25T02:02:44.702Z,13.80
2018-04-25T02:05:12.125Z,13.90
2018-04-25T02:07:39.578Z,13.90
2018-04-25T02:10:07.035Z,13.80
2018-04-25T02:12:34.480Z,13.80
2018-04-25T02:15:01.921Z,13.70
2018-04-25T02:17:30.153Z,13.90
2018-04-25T02:19:57.586Z,13.90
2018-04-25T02:22:25.040Z,13.90
2018-04-25T02:24:52.478Z,13.90
2018-04-25T02:27:19.926Z,13.90
2018-04-25T02:29:47.358Z,14.00
2018-04-25T02:32:14.852Z,13.90
2018-04-25T02:34:42.297Z,14.10
2018-04-25T02:37:09.741Z,14.00
2018-04-25T02:39:37.189Z,14.10
2018-04-25T02:42:04.627Z,13.80
2018-04-25T02:44:32.837Z,13.70
2018-04-25T02:47:00.297Z,13.70
2018-04-25T02:49:27.739Z,13.70
2018-04-25T02:54:29.949Z,13.70
2018-04-25T02:56:57.395Z,13.60
2018-04-25T02:59:24.848Z,13.60
2018-04-25T03:01:53.052Z,13.50
2018-04-25T03:04:20.504Z,13.50
2018-04-25T03:06:47.936Z,13.50
2018-04-25T03:09:16.165Z,13.40
2018-04-25T03:11:43.630Z,13.40
2018-04-25T03:14:11.081Z,13.40
2018-04-25T03:16:38.525Z,13.40
2018-04-25T03:19:05.990Z,13.50
2018-04-25T03:21:33.424Z,13.30
2018-04-25T03:24:00.877Z,13.30
2018-04-25T03:26:28.304Z,13.30
2018-04-25T03:28:55.753Z,13.30
2018-04-25T03:31:23.205Z,13.40
2018-04-25T03:33:50.662Z,13.40
2018-04-25T03:36:18.113Z,13.30
2018-04-25T03:38:46.344Z,13.30
2018-04-25T03:41:13.777Z,13.20
2018-04-25T03:43:41.216Z,13.30
2018-04-25T03:46:09.418Z,13.50
2018-04-25T03:48:36.896Z,13.50
2018-04-25T03:51:04.344Z,13.40
2018-04-25T03:53:31.781Z,13.50
2018-04-25T03:55:59.984Z,13.50
2018-04-25T03:58:27.423Z,13.40
2018-04-25T04:00:55.639Z,13.50
2018-04-25T04:03:23.067Z,13.50
2018-04-25T04:05:51.312Z,13.60
2018-04-25T04:08:18.787Z,13.60
2018-04-25T04:10:46.256Z,13.60
2018-04-25T04:13:13.688Z,13.60
2018-04-25T04:15:41.144Z,13.70
2018-04-25T04:18:08.598Z,13.60
2018-04-25T04:20:36.040Z,13.60
2018-04-25T04:23:03.489Z,13.60
2018-04-25T04:25:30.933Z,13.60
2018-04-25T04:27:59.139Z,13.70
2018-04-25T04:30:26.593Z,13.70
2018-04-25T04:32:54.037Z,13.70
2018-04-25T04:35:22.256Z,13.60
2018-04-25T04:37:50.486Z,13.70
2018-04-25T04:40:17.948Z,13.70
2018-04-25T04:42:45.380Z,13.70
2018-04-25T04:45:12.839Z,13.70
2018-04-25T04:47:40.312Z,13.80
2018-04-25T04:50:07.769Z,13.70
2018-04-25T04:52:35.211Z,13.80
2018-04-25T04:55:02.685Z,13.70
2018-04-25T04:57:30.116Z,13.80
2018-04-25T04:59:57.562Z,13.80
2018-04-25T05:02:25.773Z,13.70
2018-04-25T05:04:53.228Z,13.60
2018-04-25T05:07:20.703Z,13.60
2018-04-25T05:09:48.148Z,13.60
2018-04-25T05:12:15.608Z,13.70
2018-04-25T05:14:43.061Z,13.60
2018-04-25T05:17:11.277Z,13.70
2018-04-25T05:19:39.481Z,13.70
2018-04-25T05:22:06.932Z,13.70
2018-04-25T05:24:34.459Z,13.70
2018-04-25T05:27:01.827Z,13.70
2018-04-25T05:29:29.270Z,13.80
2018-04-25T05:31:56.722Z,13.80
2018-04-25T05:34:24.921Z,13.80
2018-04-25T05:36:52.393Z,13.80
2018-04-25T05:39:19.854Z,13.90
2018-04-25T05:41:47.298Z,14.00
2018-04-25T05:44:14.740Z,14.10
2018-04-25T05:46:42.957Z,14.20
2018-04-25T05:49:10.393Z,14.20
2018-04-25T05:51:38.608Z,14.30
2018-04-25T05:54:06.064Z,14.30
2018-04-25T05:56:33.524Z,14.40
2018-04-25T05:59:00.954Z,14.50
2018-04-25T06:01:29.175Z,14.60
2018-04-25T06:03:56.610Z,14.60
2018-04-25T06:06:24.075Z,14.70
2018-04-25T06:08:51.523Z,14.70
2018-04-25T06:11:19.751Z,14.80
2018-04-25T06:13:47.193Z,14.80
2018-04-25T06:16:14.655Z,14.90
2018-04-25T06:18:42.109Z,14.80
2018-04-25T06:21:09.553Z,14.90
2018-04-25T06:23:37.763Z,15.10
2018-04-25T06:26:05.222Z,15.00
2018-04-25T06:28:32.665Z,15.10
2018-04-25T06:31:00.113Z,15.10
2018-04-25T06:33:28.331Z,15.10
2018-04-25T06:35:55.776Z,15.10
2018-04-25T06:38:23.230Z,15.10
2018-04-25T06:40:51.437Z,15.10
2018-04-25T06:43:18.896Z,15.10
2018-04-25T06:45:46.356Z,15.20
2018-04-25T06:48:13.811Z,15.20
2018-04-25T06:50:41.258Z,15.20
2018-04-25T06:53:08.696Z,15.20
2018-04-25T06:55:36.933Z,15.30
2018-04-25T06:58:04.380Z,15.30
2018-04-25T07:00:31.835Z,15.40
2018-04-25T07:02:59.280Z,15.40
2018-04-25T07:05:27.488Z,15.50
2018-04-25T07:07:55.033Z,15.50
2018-04-25T07:10:22.421Z,15.60
2018-04-25T07:12:49.876Z,15.70
2018-04-25T07:15:17.313Z,15.80
2018-04-25T07:17:44.766Z,15.90
2018-04-25T07:20:12.980Z,16.20
2018-04-25T07:22:40.484Z,16.20
2018-04-25T07:25:07.950Z,16.30
2018-04-25T07:27:35.406Z,16.40
2018-04-25T07:30:02.862Z,16.50
2018-04-25T07:32:30.301Z,16.60
2018-04-25T07:34:57.736Z,16.70
2018-04-25T07:37:25.178Z,16.80
2018-04-25T07:39:53.384Z,17.00
2018-04-25T07:42:20.852Z,17.00
2018-04-25T07:44:48.312Z,17.20
2018-04-25T07:47:15.752Z,17.40
2018-04-25T07:49:43.965Z,17.60
2018-04-25T07:52:11.433Z,17.50
2018-04-25T07:54:38.890Z,17.60
2018-04-25T07:57:06.340Z,17.60
2018-04-25T07:59:33.807Z,17.70
2018-04-25T08:02:01.251Z,17.70
2018-04-25T08:04:28.709Z,17.80
2018-04-25T08:06:56.145Z,17.80
2018-04-25T08:09:23.601Z,17.90
2018-04-25T08:11:51.040Z,17.90
2018-04-25T08:14:30.253Z,18.00
2018-04-25T08:17:09.655Z,18.00
2018-04-25T08:19:52.595Z,18.00
2018-04-25T08:22:20.809Z,18.10
2018-04-25T08:24:48.279Z,18.10
2018-04-25T08:27:15.722Z,18.20
2018-04-25T08:29:43.192Z,18.40
2018-04-25T08:32:10.642Z,18.50
2018-04-25T08:34:38.098Z,18.50
2018-04-25T08:37:05.547Z,18.60
2018-04-25T08:39:33.007Z,18.70
2018-04-25T08:42:00.453Z,18.70
2018-04-25T08:44:28.675Z,18.90
2018-04-25T08:46:56.117Z,18.90
2018-04-25T08:49:23.570Z,19.00
2018-04-25T08:51:51.004Z,19.10
2018-04-25T08:54:19.233Z,19.20
2018-04-25T08:56:46.674Z,19.20
2018-04-25T08:59:14.170Z,19.20
2018-04-25T09:01:41.581Z,19.30
2018-04-25T09:04:09.792Z,19.50
2018-04-25T09:06:37.996Z,19.50
2018-04-25T09:09:05.448Z,19.50
2018-04-25T09:11:32.916Z,19.50
2018-04-25T09:14:00.367Z,19.60
2018-04-25T09:16:27.815Z,19.60
2018-04-25T09:18:55.272Z,19.70
2018-04-25T09:21:22.723Z,19.80
2018-04-25T09:23:50.182Z,19.80
2018-04-25T09:26:17.640Z,19.90
2018-04-25T09:28:45.855Z,20.00
2018-04-25T09:31:13.307Z,20.00
2018-04-25T09:33:40.751Z,20.00
2018-04-25T09:36:08.211Z,20.20
2018-04-25T09:38:35.656Z,20.10
2018-04-25T09:41:03.869Z,20.20
2018-04-25T09:43:31.319Z,20.20
2018-04-25T09:45:58.783Z,20.20
2018-04-25T09:48:26.253Z,20.20
2018-04-25T09:50:54.434Z,20.40
2018-04-25T09:53:21.881Z,20.40
2018-04-25T09:55:49.321Z,20.50
2018-04-25T09:58:17.562Z,20.50
2018-04-25T10:00:50.653Z,20.50
2018-04-25T10:03:23.035Z,20.80
2018-04-25T10:05:50.493Z,20.90
2018-04-25T10:08:17.937Z,21.00
2018-04-25T10:10:45.397Z,20.90
2018-04-25T10:13:12.835Z,20.90
2018-04-25T10:15:40.305Z,21.00
2018-04-25T10:18:07.739Z,21.10
2018-04-25T10:20:35.955Z,21.10
2018-04-25T10:23:03.408Z,21.10
2018-04-25T10:25:30.916Z,21.00
2018-04-25T10:27:59.085Z,21.10
2018-04-25T10:30:26.513Z,21.10
2018-04-25T10:32:53.976Z,21.10
2018-04-25T10:35:21.471Z,21.10
2018-04-25T10:37:48.920Z,21.10
2018-04-25T10:40:16.350Z,21.10
2018-04-25T10:42:44.563Z,21.30
2018-04-25T10:45:11.994Z,21.20
2018-04-25T10:47:39.431Z,21.50
2018-04-25T10:50:07.641Z,21.40
2018-04-25T10:52:35.098Z,21.40
2018-04-25T10:55:02.545Z,21.20
2018-04-25T10:57:30.757Z,20.90
2018-04-25T10:59:58.201Z,20.80
2018-04-25T11:02:25.695Z,20.80
2018-04-25T11:04:53.885Z,20.70
2018-04-25T11:07:21.352Z,20.60
2018-04-25T11:09:48.784Z,20.60
2018-04-25T11:12:16.247Z,20.60
2018-04-25T11:14:43.701Z,20.70
2018-04-25T11:17:11.145Z,20.60
2018-04-25T11:19:39.357Z,20.60
2018-04-25T11:22:06.792Z,20.60
2018-04-25T11:24:34.255Z,20.70
2018-04-25T11:27:02.462Z,20.60
2018-04-25T11:29:29.925Z,20.60
2018-04-25T11:31:57.423Z,20.50
2018-04-25T11:34:24.823Z,20.50
2018-04-25T11:36:52.268Z,20.50
2018-04-25T11:39:20.491Z,20.70
2018-04-25T11:41:47.949Z,20.70
2018-04-25T11:44:16.180Z,20.70
2018-04-25T11:46:43.613Z,20.70
2018-04-25T11:49:11.108Z,20.80
2018-04-25T11:51:38.522Z,21.10
2018-04-25T11:54:05.972Z,21.20
2018-04-25T11:56:33.418Z,21.20
2018-04-25T11:59:00.862Z,21.20
2018-04-25T12:01:29.079Z,21.20
2018-04-25T12:03:56.527Z,21.20
2018-04-25T12:06:23.985Z,21.40
2018-04-25T12:08:51.434Z,21.50
2018-04-25T12:11:19.628Z,21.40
2018-04-25T12:13:47.091Z,21.40
2018-04-25T12:16:14.550Z,21.40
2018-04-25T12:18:42.816Z,21.20
2018-04-25T12:21:10.195Z,21.20
2018-04-25T12:23:37.635Z,21.20
2018-04-25T12:26:05.845Z,21.20
2018-04-25T12:28:33.316Z,21.20
2018-04-25T12:31:00.777Z,21.10
2018-04-25T12:33:28.240Z,21.20
2018-04-25T12:35:55.762Z,21.40
2018-04-25T12:38:23.920Z,21.70
2018-04-25T12:40:51.363Z,21.70
2018-04-25T12:43:18.807Z,21.90
2018-04-25T12:45:47.019Z,22.00
2018-04-25T12:48:14.478Z,22.00
2018-04-25T12:50:41.916Z,22.20
2018-04-25T12:53:09.354Z,22.00
2018-04-25T12:55:36.806Z,22.30
2018-04-25T12:58:05.012Z,22.70
2018-04-25T13:00:32.488Z,22.70
2018-04-25T13:02:59.938Z,22.70
2018-04-25T13:05:27.395Z,22.70
2018-04-25T13:07:54.849Z,22.70
2018-04-25T13:10:22.325Z,22.50
2018-04-25T13:12:49.757Z,22.70
2018-04-25T13:15:18.815Z,23.00
2018-04-25T13:17:46.255Z,23.00
2018-04-25T13:20:13.705Z,23.30
2018-04-25T13:22:41.148Z,23.50
2018-04-25T13:25:09.367Z,23.20
2018-04-25T13:27:36.809Z,23.20
2018-04-25T13:30:04.264Z,23.30
2018-04-25T13:32:31.711Z,23.60
2018-04-25T13:34:59.923Z,23.20
2018-04-25T13:37:27.380Z,23.20
2018-04-25T13:39:54.815Z,23.30
2018-04-25T13:42:22.266Z,23.50
2018-04-25T13:44:50.481Z,23.60
2018-04-25T13:47:18.456Z,23.60
2018-04-25T13:49:46.524Z,23.60
2018-04-25T13:52:14.866Z,23.70
2018-04-25T13:54:42.317Z,23.70
2018-04-25T13:57:09.771Z,23.50
2018-04-25T13:59:37.415Z,23.50
2018-04-25T14:02:04.917Z,22.80
2018-04-25T14:04:32.346Z,23.00
2018-04-25T14:06:59.800Z,23.30
2018-04-25T14:09:27.228Z,23.70
2018-04-25T14:11:55.465Z,23.70
2018-04-25T14:14:22.924Z,23.70
2018-04-25T14:16:50.374Z,23.70
2018-04-25T14:19:17.799Z,23.80
2018-04-25T14:21:45.259Z,24.10
2018-04-25T14:24:13.929Z,23.90
2018-04-25T14:26:41.380Z,23.90
2018-04-25T14:29:08.817Z,23.80
2018-04-25T14:31:36.267Z,23.70
2018-04-25T14:34:03.723Z,23.30
2018-04-25T14:36:31.195Z,22.90
2018-04-25T14:38:58.643Z,22.70
2018-04-25T14:41:26.091Z,22.30
2018-04-25T14:43:53.550Z,22.60
2018-04-25T14:46:21.759Z,21.70
2018-04-25T14:48:49.996Z,22.30
2018-04-25T14:51:17.438Z,22.20
2018-04-25T14:53:44.875Z,21.80
2018-04-25T14:56:12.328Z,21.00
2018-04-25T14:58:39.773Z,20.20
2018-04-25T15:01:07.220Z,20.20
2018-04-25T15:03:35.428Z,20.60
2018-04-25T15:06:02.879Z,20.50
2018-04-25T15:08:30.328Z,20.90
2018-04-25T15:10:57.784Z,20.50
2018-04-25T15:13:26.015Z,21.60
2018-04-25T15:15:53.460Z,21.60
2018-04-25T15:18:20.900Z,21.50
2018-04-25T15:20:48.351Z,21.70
2018-04-25T15:23:16.574Z,20.90
2018-04-25T15:25:44.014Z,20.90
2018-04-25T15:28:11.462Z,21.20
2018-04-25T15:30:38.948Z,21.30
2018-04-25T15:33:06.407Z,21.20
2018-04-25T15:35:33.977Z,20.80
2018-04-25T15:38:01.424Z,20.80
2018-04-25T15:40:28.858Z,20.80
2018-04-25T15:42:57.093Z,21.30
2018-04-25T15:45:24.519Z,21.20
2018-04-25T15:47:51.990Z,21.70
2018-04-25T15:50:19.420Z,21.30
2018-04-25T15:52:47.632Z,20.70
2018-04-25T15:55:15.095Z,20.70
2018-04-25T15:57:42.519Z,21.20
2018-04-25T16:00:10.736Z,20.30
2018-04-25T16:02:38.188Z,20.30
2018-04-25T16:05:05.648Z,20.60
2018-04-25T16:07:33.080Z,21.00
2018-04-25T16:10:00.527Z,21.10
2018-04-25T16:12:27.996Z,21.10
2018-04-25T16:14:55.430Z,21.20
2018-04-25T16:17:23.280Z,21.00
2018-04-25T16:19:50.716Z,21.30
2018-04-25T16:22:18.918Z,21.10
2018-04-25T16:24:46.356Z,21.00
2018-04-25T16:27:14.558Z,21.30
2018-04-25T16:29:42.000Z,21.20
2018-04-25T16:32:10.204Z,20.80
2018-04-25T16:34:38.429Z,20.30
2018-04-25T16:37:05.866Z,20.30
2018-04-25T16:39:33.329Z,20.20
2018-04-25T16:42:00.772Z,20.10
2018-04-25T16:44:28.226Z,20.20
2018-04-25T16:46:55.662Z,20.30
2018-04-25T16:49:23.893Z,20.00
2018-04-25T16:51:51.332Z,19.90
2018-04-25T16:54:18.800Z,19.70
2018-04-25T16:56:46.244Z,19.80
2018-04-25T16:59:13.695Z,19.90
2018-04-25T17:01:41.933Z,19.80
2018-04-25T17:04:09.368Z,19.70
2018-04-25T17:06:36.807Z,19.80
2018-04-25T17:09:04.260Z,19.90
2018-04-25T17:11:32.468Z,20.00
2018-04-25T17:13:59.934Z,20.00
2018-04-25T17:16:28.140Z,20.30
2018-04-25T17:18:55.614Z,20.30
2018-04-25T17:21:23.072Z,20.40
2018-04-25T17:23:50.522Z,20.30
2018-04-25T17:26:18.060Z,19.70
2018-04-25T17:28:45.541Z,19.50
2018-04-25T17:31:12.963Z,19.40
2018-04-25T17:33:41.176Z,19.40
2018-04-25T17:36:08.624Z,19.40
2018-04-25T17:38:36.058Z,18.90
2018-04-25T17:43:50.024Z,19.20
2018-04-25T17:46:17.559Z,18.90
2018-04-25T17:48:47.129Z,18.80
2018-04-25T17:51:16.370Z,18.80
2018-04-25T17:53:46.682Z,18.40
2018-04-25T17:56:16.167Z,18.60
2018-04-25T17:58:48.600Z,18.60
2018-04-25T18:01:16.043Z,18.40
2018-04-25T18:03:43.624Z,18.60
2018-04-25T18:06:11.100Z,18.40
2018-04-25T18:08:40.145Z,18.00
2018-04-25T18:11:07.590Z,18.00
2018-04-25T18:13:35.463Z,18.10
2018-04-25T18:16:06.140Z,18.10
2018-04-25T18:18:35.017Z,17.90
2018-04-25T18:21:02.808Z,18.10
2018-04-25T18:23:30.624Z,17.80
2018-04-25T18:25:58.097Z,17.90
2018-04-25T18:28:26.455Z,18.00
2018-04-25T18:30:54.684Z,17.80
2018-04-25T18:33:22.150Z,17.80
2018-04-25T18:35:49.619Z,17.70
2018-04-25T18:38:17.052Z,17.60
2018-04-25T18:40:46.522Z,17.60
2018-04-25T18:43:14.724Z,17.30
2018-04-25T18:45:43.173Z,17.30
2018-04-25T18:48:10.638Z,17.40
2018-04-25T18:50:38.120Z,17.30
2018-04-25T18:53:06.304Z,17.30
2018-04-25T18:55:33.759Z,17.30
2018-04-25T18:58:01.315Z,17.20
2018-04-25T19:00:29.528Z,17.10
2018-04-25T19:02:56.983Z,17.10
2018-04-25T19:05:24.409Z,17.10
2018-04-25T19:07:52.627Z,16.80
2018-04-25T19:10:23.736Z,16.80
2018-04-25T19:12:52.049Z,16.90
2018-04-25T19:15:19.547Z,16.90
2018-04-25T19:17:47.777Z,16.90
2018-04-25T19:20:16.488Z,16.90
2018-04-25T19:22:43.928Z,16.90
2018-04-25T19:25:14.539Z,16.80
2018-04-25T19:27:42.029Z,16.80
2018-04-25T19:30:14.811Z,16.70
2018-04-25T19:32:42.325Z,16.60
2018-04-25T19:35:11.998Z,16.70
2018-04-25T19:37:39.509Z,16.70
2018-04-25T19:40:06.935Z,16.60
2018-04-25T19:42:35.133Z,16.50
2018-04-25T19:45:02.573Z,16.50
2018-04-25T19:47:30.017Z,16.50
2018-04-25T19:49:57.465Z,16.50
2018-04-25T19:52:25.671Z,16.50
2018-04-25T19:54:53.113Z,16.50
2018-04-25T19:57:21.382Z,16.50
2018-04-25T19:59:48.782Z,16.50
2018-04-25T20:02:16.225Z,16.50
2018-04-25T20:04:43.689Z,16.50
2018-04-25T20:07:11.139Z,16.50
2018-04-25T20:09:39.369Z,16.40
2018-04-25T20:12:06.824Z,16.40
2018-04-25T20:14:34.270Z,16.40
2018-04-25T20:17:01.715Z,16.40
2018-04-25T20:19:29.172Z,16.30
2018-04-25T20:21:56.642Z,16.30
2018-04-25T20:24:24.862Z,16.40
2018-04-25T20:26:52.401Z,16.40
2018-04-25T20:29:19.872Z,16.40
2018-04-25T20:31:47.329Z,16.30
2018-04-25T20:34:14.775Z,16.40
2018-04-25T20:36:42.208Z,16.50
2018-04-25T20:39:09.692Z,16.40
2018-04-25T20:41:37.155Z,16.20
2018-04-25T20:44:05.385Z,16.20
2018-04-25T20:46:32.817Z,16.20
2018-04-25T20:49:00.278Z,16.30
2018-04-25T20:51:27.730Z,16.20
2018-04-25T20:53:55.175Z,15.70
2018-04-25T20:56:23.380Z,15.70
2018-04-25T20:58:50.841Z,15.70
2018-04-25T21:01:18.431Z,15.70
2018-04-25T21:03:45.864Z,15.80
2018-04-25T21:06:13.317Z,15.60
2018-04-25T21:08:40.775Z,15.50
2018-04-25T21:11:08.235Z,15.50
2018-04-25T21:13:36.416Z,15.20
2018-04-25T21:16:04.624Z,15.20
2018-04-25T21:18:32.082Z,15.20
2018-04-25T21:20:59.542Z,15.40
2018-04-25T21:23:26.963Z,15.30
2018-04-25T21:25:55.169Z,15.50
2018-04-25T21:28:22.613Z,15.40
2018-04-25T21:30:50.826Z,15.50
2018-04-25T21:33:18.268Z,15.50
2018-04-25T21:35:45.732Z,15.40
2018-04-25T21:38:13.169Z,15.60
2018-04-25T21:40:40.629Z,15.40
2018-04-25T21:43:08.066Z,15.30
2018-04-25T21:45:35.507Z,15.40
2018-04-25T21:48:02.949Z,15.20
2018-04-25T21:50:30.390Z,15.30
2018-04-25T21:52:58.596Z,15.10
2018-04-25T21:55:26.044Z,15.10
2018-04-25T21:57:53.493Z,15.00
2018-04-25T22:00:21.720Z,15.00
2018-04-25T22:02:49.169Z,15.00
2018-04-25T22:05:16.648Z,15.00
2018-04-25T22:07:44.092Z,15.00
2018-04-25T22:10:11.543Z,15.10
2018-04-25T22:12:38.987Z,15.10
2018-04-25T22:15:07.196Z,15.10
2018-04-25T22:17:34.664Z,15.10
2018-04-25T22:20:02.119Z,15.00
2018-04-25T22:22:29.571Z,15.00
2018-04-25T22:24:57.020Z,14.70
2018-04-25T22:27:25.244Z,14.60
2018-04-25T22:29:52.675Z,14.50
2018-04-25T22:32:20.126Z,14.20
2018-04-25T22:34:48.359Z,14.40
2018-04-25T22:37:15.816Z,14.30
2018-04-25T22:39:43.262Z,14.40
2018-04-25T22:42:10.723Z,14.40
2018-04-25T22:44:38.184Z,14.20
2018-04-25T22:47:05.640Z,14.20
2018-04-25T22:49:33.094Z,14.20
2018-04-25T22:52:00.557Z,14.20
2018-04-25T22:54:27.995Z,14.20
2018-04-25T22:56:56.199Z,14.70
2018-04-25T22:59:24.403Z,14.90
2018-04-25T23:01:51.864Z,14.80
2018-04-25T23:04:19.305Z,15.00
2018-04-25T23:06:47.517Z,15.00
2018-04-25T23:09:14.972Z,15.00
2018-04-25T23:11:42.449Z,15.00
2018-04-25T23:14:09.892Z,15.00
2018-04-25T23:16:37.356Z,14.90
2018-04-25T23:19:04.791Z,14.90
2018-04-25T23:21:32.247Z,14.90
2018-04-25T23:23:59.673Z,14.90
2018-04-25T23:26:27.122Z,14.90
2018-04-25T23:28:54.569Z,14.90
2018-04-25T23:31:22.014Z,14.90
2018-04-25T23:33:49.469Z,15.00
2018-04-25T23:36:16.939Z,14.90
2018-04-25T23:38:44.385Z,14.60
2018-04-25T23:41:11.839Z,14.50
2018-04-25T23:43:39.282Z,14.40
2018-04-25T23:46:06.706Z,14.50
2018-04-25T23:48:34.157Z,14.70
2018-04-25T23:51:01.606Z,14.80
2018-04-25T23:53:29.047Z,14.70
2018-04-25T23:55:56.489Z,14.70
2018-04-25T23:58:23.930Z,14.80
